createdAt,value
2022-12-31T00:00:11.916Z,6.52
2022-12-31T00:02:39.326Z,6.99
2022-12-31T00:05:07.568Z,6.72
2022-12-31T00:10:03.944Z,7.35
2022-12-31T00:12:30.623Z,7.35
2022-12-31T00:14:57.316Z,7.00
2022-12-31T00:17:23.984Z,6.99
2022-12-31T00:19:50.785Z,7.11
2022-12-31T00:22:17.438Z,6.89
2022-12-31T00:24:44.162Z,6.73
2022-12-31T00:27:10.808Z,7.27
2022-12-31T00:29:37.658Z,7.12
2022-12-31T00:32:05.458Z,7.18
2022-12-31T00:34:32.319Z,7.25
2022-12-31T00:36:59.017Z,7.24
2022-12-31T00:39:25.836Z,7.44
2022-12-31T00:41:52.506Z,6.99
2022-12-31T00:44:19.345Z,7.39
2022-12-31T00:46:46.147Z,7.30
2022-12-31T00:49:12.963Z,7.38
2022-12-31T00:51:39.833Z,7.47
2022-12-31T00:54:06.632Z,7.55
2022-12-31T00:56:33.284Z,7.65
2022-12-31T00:59:00.523Z,7.48
2022-12-31T01:01:34.438Z,7.67
2022-12-31T01:04:20.571Z,7.54
2022-12-31T01:06:47.588Z,8.13
2022-12-31T01:09:16.152Z,7.82
2022-12-31T01:11:43.307Z,7.87
2022-12-31T01:14:09.852Z,7.73
2022-12-31T01:16:42.022Z,8.07
2022-12-31T01:19:13.458Z,7.97
2022-12-31T01:21:42.769Z,7.88
2022-12-31T01:24:11.492Z,7.97
2022-12-31T01:26:39.302Z,7.92
2022-12-31T01:29:07.819Z,7.98
2022-12-31T01:31:35.121Z,7.89
2022-12-31T01:34:02.479Z,8.32
2022-12-31T01:36:32.170Z,8.46
2022-12-31T01:39:01.046Z,8.36
2022-12-31T01:41:35.744Z,8.91
2022-12-31T01:44:11.545Z,8.68
2022-12-31T01:46:47.698Z,7.69
2022-12-31T01:49:28.521Z,7.91
2022-12-31T01:52:02.651Z,7.89
2022-12-31T01:54:33.629Z,8.44
2022-12-31T01:57:01.383Z,8.45
2022-12-31T01:59:30.360Z,8.74
2022-12-31T02:01:57.550Z,8.35
2022-12-31T02:04:26.482Z,8.53
2022-12-31T02:07:06.913Z,8.71
2022-12-31T02:09:36.384Z,8.59
2022-12-31T02:12:03.151Z,8.69
2022-12-31T02:14:50.481Z,8.49
2022-12-31T02:17:47.735Z,8.42
2022-12-31T02:20:42.167Z,8.79
2022-12-31T02:23:51.581Z,8.40
2022-12-31T02:26:26.474Z,8.71
2022-12-31T02:29:11.803Z,8.58
2022-12-31T02:31:57.863Z,8.21
2022-12-31T02:35:19.453Z,8.60
2022-12-31T02:37:51.189Z,8.71
2022-12-31T02:40:21.986Z,8.53
2022-12-31T02:42:54.866Z,8.96
2022-12-31T02:45:32.151Z,9.44
2022-12-31T02:48:39.336Z,9.49
2022-12-31T02:51:38.594Z,9.35
2022-12-31T02:54:23.503Z,9.89
2022-12-31T02:57:11.992Z,9.82
2022-12-31T03:00:13.919Z,9.21
2022-12-31T03:02:45.380Z,9.47
2022-12-31T03:05:15.593Z,9.72
2022-12-31T03:07:43.733Z,9.35
2022-12-31T03:10:10.830Z,9.30
2022-12-31T03:12:48.755Z,9.37
2022-12-31T03:15:26.540Z,9.74
2022-12-31T03:18:12.644Z,9.71
2022-12-31T03:21:12.349Z,9.74
2022-12-31T03:23:50.055Z,9.98
2022-12-31T03:26:16.849Z,10.35
2022-12-31T03:28:47.852Z,10.85
2022-12-31T03:31:16.311Z,9.57
2022-12-31T03:33:43.150Z,9.57
2022-12-31T03:36:14.679Z,9.61
2022-12-31T03:38:41.749Z,9.54
2022-12-31T03:41:11.193Z,9.74
2022-12-31T03:43:38.502Z,10.18
2022-12-31T03:46:05.436Z,10.32
2022-12-31T03:48:32.194Z,10.43
2022-12-31T03:50:58.816Z,10.91
2022-12-31T03:53:25.575Z,10.23
2022-12-31T03:55:53.986Z,10.41
2022-12-31T03:58:21.952Z,10.64
2022-12-31T04:00:49.561Z,10.82
2022-12-31T04:03:16.461Z,10.25
2022-12-31T04:05:43.195Z,10.46
2022-12-31T04:08:10.030Z,10.63
2022-12-31T04:10:36.731Z,10.64
2022-12-31T04:13:04.804Z,10.59
2022-12-31T04:15:32.037Z,10.55
2022-12-31T04:17:58.929Z,9.94
2022-12-31T04:20:25.977Z,10.11
2022-12-31T04:22:52.713Z,9.94
2022-12-31T04:25:19.436Z,9.77
2022-12-31T04:27:46.228Z,10.19
2022-12-31T04:30:14.000Z,10.35
2022-12-31T04:32:41.255Z,10.41
2022-12-31T04:35:09.092Z,10.35
2022-12-31T04:37:35.864Z,10.22
2022-12-31T04:40:06.309Z,10.53
2022-12-31T04:42:34.856Z,10.78
2022-12-31T04:45:01.543Z,11.00
2022-12-31T04:47:28.267Z,10.86
2022-12-31T04:49:54.965Z,10.45
2022-12-31T04:52:21.967Z,10.63
2022-12-31T04:54:48.642Z,9.95
2022-12-31T04:57:15.488Z,10.26
2022-12-31T04:59:42.169Z,9.94
2022-12-31T05:02:09.317Z,10.65
2022-12-31T05:04:36.094Z,10.32
2022-12-31T05:07:02.906Z,10.67
2022-12-31T05:09:29.738Z,10.56
2022-12-31T05:11:56.839Z,10.25
2022-12-31T05:14:23.551Z,9.98
2022-12-31T05:16:50.513Z,10.47
2022-12-31T05:19:17.211Z,10.92
2022-12-31T05:21:44.055Z,11.13
2022-12-31T05:24:10.722Z,11.41
2022-12-31T05:26:37.437Z,11.52
2022-12-31T05:29:04.169Z,11.07
2022-12-31T05:31:30.839Z,11.19
2022-12-31T05:33:57.594Z,11.33
2022-12-31T05:36:24.341Z,10.99
2022-12-31T05:38:51.053Z,11.16
2022-12-31T05:41:17.762Z,11.13
2022-12-31T05:43:44.481Z,11.12
2022-12-31T05:46:11.303Z,10.98
2022-12-31T05:48:38.021Z,10.64
2022-12-31T05:51:05.060Z,10.82
2022-12-31T05:53:31.796Z,11.27
2022-12-31T05:55:58.521Z,10.88
2022-12-31T05:58:25.714Z,10.90
2022-12-31T06:00:52.800Z,10.14
2022-12-31T06:03:19.638Z,10.52
2022-12-31T06:05:46.424Z,10.70
2022-12-31T06:08:13.310Z,10.40
2022-12-31T06:10:40.507Z,10.40
2022-12-31T06:13:07.798Z,10.40
2022-12-31T06:15:40.291Z,10.27
2022-12-31T06:18:07.384Z,9.92
2022-12-31T06:20:37.711Z,10.09
2022-12-31T06:23:05.523Z,10.04
2022-12-31T06:25:32.428Z,10.34
2022-12-31T06:27:59.123Z,10.04
2022-12-31T06:30:25.887Z,9.96
2022-12-31T06:32:52.594Z,10.17
2022-12-31T06:35:19.228Z,10.51
2022-12-31T06:37:45.945Z,10.56
2022-12-31T06:40:13.390Z,10.53
2022-12-31T06:42:42.121Z,10.64
2022-12-31T06:45:09.282Z,11.04
2022-12-31T06:47:36.073Z,10.88
2022-12-31T06:50:02.985Z,10.24
2022-12-31T06:52:29.748Z,10.23
2022-12-31T06:54:56.839Z,10.52
2022-12-31T06:57:23.933Z,10.83
2022-12-31T06:59:51.283Z,11.04
2022-12-31T07:02:58.318Z,11.12
2022-12-31T07:05:44.572Z,10.81
2022-12-31T07:08:33.968Z,11.03
2022-12-31T07:11:14.284Z,10.84
2022-12-31T07:14:35.195Z,11.04
2022-12-31T07:17:32.933Z,10.91
2022-12-31T07:20:11.831Z,10.87
2022-12-31T07:22:41.399Z,11.35
2022-12-31T07:25:14.836Z,11.38
2022-12-31T07:27:59.387Z,10.81
2022-12-31T07:30:42.715Z,10.98
2022-12-31T07:33:15.151Z,11.16
2022-12-31T07:36:04.394Z,11.07
2022-12-31T07:38:50.093Z,11.14
2022-12-31T07:42:22.603Z,11.17
2022-12-31T07:45:02.423Z,11.49
2022-12-31T07:47:30.219Z,11.43
2022-12-31T07:49:57.927Z,11.31
2022-12-31T07:52:25.435Z,11.39
2022-12-31T07:54:52.245Z,11.38
2022-12-31T07:57:21.128Z,11.71
2022-12-31T08:00:20.465Z,11.86
2022-12-31T08:03:42.798Z,12.02
2022-12-31T08:06:27.384Z,11.71
2022-12-31T08:09:04.308Z,11.71
2022-12-31T08:11:38.362Z,12.07
2022-12-31T08:14:13.887Z,11.81
2022-12-31T08:16:41.628Z,11.85
2022-12-31T08:19:31.750Z,12.14
2022-12-31T08:22:25.564Z,11.95
2022-12-31T08:25:25.940Z,12.48
2022-12-31T08:28:27.088Z,11.87
2022-12-31T08:31:23.873Z,11.58
2022-12-31T08:34:10.628Z,11.45
2022-12-31T08:37:36.697Z,11.11
2022-12-31T08:40:31.508Z,11.44
2022-12-31T08:43:03.748Z,11.36
2022-12-31T08:45:41.627Z,11.31
2022-12-31T08:48:26.942Z,11.26
2022-12-31T08:50:54.714Z,11.50
2022-12-31T08:53:22.359Z,11.45
2022-12-31T08:55:57.679Z,11.19
2022-12-31T08:59:12.220Z,11.51
2022-12-31T09:02:18.852Z,11.72
2022-12-31T09:05:23.916Z,11.53
2022-12-31T09:08:08.423Z,11.73
2022-12-31T09:10:46.581Z,11.79
2022-12-31T09:13:40.336Z,11.94
2022-12-31T09:16:29.236Z,12.25
2022-12-31T09:18:56.025Z,12.11
2022-12-31T09:21:22.910Z,12.20
2022-12-31T09:23:49.967Z,12.38
2022-12-31T09:26:40.718Z,12.55
2022-12-31T09:29:23.489Z,12.12
2022-12-31T09:32:05.892Z,11.67
2022-12-31T09:34:56.665Z,12.09
2022-12-31T09:37:36.782Z,12.15
2022-12-31T09:40:44.310Z,12.03
2022-12-31T09:44:01.215Z,11.97
2022-12-31T09:47:15.395Z,11.76
2022-12-31T09:50:17.983Z,12.05
2022-12-31T09:53:26.529Z,12.03
2022-12-31T09:56:03.041Z,12.68
2022-12-31T09:58:52.181Z,12.30
2022-12-31T10:01:30.971Z,12.38
2022-12-31T10:04:52.236Z,12.37
2022-12-31T10:07:48.779Z,12.15
2022-12-31T10:10:23.152Z,12.01
2022-12-31T10:13:11.595Z,12.14
2022-12-31T10:16:02.823Z,11.77
2022-12-31T10:19:06.591Z,11.48
2022-12-31T10:22:14.191Z,11.44
2022-12-31T10:25:01.059Z,11.52
2022-12-31T10:28:08.587Z,10.96
2022-12-31T10:30:44.953Z,11.91
2022-12-31T10:33:21.857Z,13.26
2022-12-31T10:36:02.546Z,13.44
2022-12-31T10:39:00.231Z,13.08
2022-12-31T10:41:54.848Z,12.48
2022-12-31T10:44:55.297Z,11.88
2022-12-31T10:47:32.683Z,12.07
2022-12-31T10:50:36.062Z,11.90
2022-12-31T10:54:06.331Z,12.01
2022-12-31T10:57:09.717Z,12.43
2022-12-31T11:00:13.852Z,12.77
2022-12-31T11:02:40.634Z,12.93
2022-12-31T11:05:34.901Z,12.62
2022-12-31T11:08:48.185Z,12.92
2022-12-31T11:11:44.996Z,13.86
2022-12-31T11:14:45.057Z,14.04
2022-12-31T11:17:47.179Z,14.78
2022-12-31T11:20:41.755Z,14.90
2022-12-31T11:23:34.737Z,15.78
2022-12-31T11:26:35.400Z,14.52
2022-12-31T11:29:32.863Z,13.41
2022-12-31T11:32:06.443Z,13.33
2022-12-31T11:34:48.402Z,13.67
2022-12-31T11:37:47.420Z,13.53
2022-12-31T11:41:04.231Z,13.60
2022-12-31T11:44:21.662Z,13.74
2022-12-31T11:47:22.175Z,13.80
2022-12-31T11:50:12.963Z,13.89
2022-12-31T11:53:25.749Z,13.81
2022-12-31T11:56:10.535Z,13.68
2022-12-31T11:58:37.417Z,13.76
2022-12-31T12:01:16.446Z,13.29
2022-12-31T12:03:44.091Z,13.41
2022-12-31T12:06:25.874Z,13.51
2022-12-31T12:08:56.727Z,13.40
2022-12-31T12:11:34.144Z,13.94
2022-12-31T12:14:00.945Z,13.76
2022-12-31T12:16:28.603Z,14.27
2022-12-31T12:19:14.891Z,14.22
2022-12-31T12:21:47.749Z,14.08
2022-12-31T12:24:26.171Z,13.80
2022-12-31T12:26:54.452Z,13.86
2022-12-31T12:29:36.603Z,13.79
2022-12-31T12:32:25.766Z,13.93
2022-12-31T12:34:53.520Z,14.13
2022-12-31T12:37:35.322Z,13.95
2022-12-31T12:40:06.848Z,14.07
2022-12-31T12:42:33.568Z,13.89
2022-12-31T12:45:14.681Z,13.82
2022-12-31T12:47:44.177Z,13.58
2022-12-31T12:50:17.851Z,13.52
2022-12-31T12:52:48.535Z,13.85
2022-12-31T12:55:33.330Z,13.57
2022-12-31T12:58:45.328Z,13.73
2022-12-31T13:01:43.297Z,13.84
2022-12-31T13:04:38.496Z,13.37
2022-12-31T13:07:27.908Z,13.26
2022-12-31T13:10:51.216Z,13.27
2022-12-31T13:13:48.042Z,13.32
2022-12-31T13:16:42.423Z,13.34
2022-12-31T13:19:24.201Z,13.13
2022-12-31T13:22:01.473Z,13.05
2022-12-31T13:25:15.488Z,12.99
2022-12-31T13:27:50.276Z,13.09
2022-12-31T13:30:40.400Z,13.26
2022-12-31T13:33:25.509Z,13.06
2022-12-31T13:35:58.704Z,13.18
2022-12-31T13:38:42.146Z,13.34
2022-12-31T13:41:17.831Z,13.25
2022-12-31T13:44:00.674Z,13.08
2022-12-31T13:46:52.389Z,13.02
2022-12-31T13:49:36.044Z,12.96
2022-12-31T13:52:27.509Z,12.96
2022-12-31T13:55:05.909Z,12.91
2022-12-31T13:58:01.960Z,12.95
2022-12-31T14:00:50.452Z,12.92
2022-12-31T14:03:45.997Z,13.08
2022-12-31T14:06:58.771Z,13.52
2022-12-31T14:09:28.699Z,13.48
2022-12-31T14:12:22.135Z,13.35
2022-12-31T14:15:21.042Z,13.18
2022-12-31T14:17:50.887Z,13.26
2022-12-31T14:20:45.419Z,13.22
2022-12-31T14:23:24.064Z,13.71
2022-12-31T14:26:18.260Z,13.63
2022-12-31T14:28:54.796Z,13.82
2022-12-31T14:31:51.625Z,13.64
2022-12-31T14:34:53.512Z,13.61
2022-12-31T14:37:56.109Z,13.81
2022-12-31T14:40:36.960Z,14.04
2022-12-31T14:43:24.935Z,13.90
2022-12-31T14:46:37.667Z,14.11
2022-12-31T14:49:32.241Z,13.87
2022-12-31T14:52:36.225Z,13.51
2022-12-31T14:55:08.836Z,13.80
2022-12-31T14:58:09.738Z,13.87
2022-12-31T15:00:26.589Z,13.74
2022-12-31T15:03:00.349Z,13.69
2022-12-31T15:05:37.575Z,13.45
2022-12-31T15:08:35.705Z,13.77
2022-12-31T15:11:37.833Z,13.57
2022-12-31T15:14:52.477Z,13.93
2022-12-31T15:17:39.669Z,13.43
2022-12-31T15:20:55.079Z,13.92
2022-12-31T15:23:42.120Z,13.58
2022-12-31T15:26:31.480Z,13.85
2022-12-31T15:29:08.891Z,13.96
2022-12-31T15:31:46.753Z,14.10
2022-12-31T15:34:37.091Z,13.80
2022-12-31T15:37:26.333Z,14.09
2022-12-31T15:40:16.247Z,14.03
2022-12-31T15:42:56.267Z,14.13
2022-12-31T15:45:32.625Z,14.12
2022-12-31T15:48:03.220Z,13.87
2022-12-31T15:50:30.807Z,13.51
2022-12-31T15:53:03.959Z,14.15
2022-12-31T15:55:34.267Z,14.13
2022-12-31T15:58:17.828Z,13.86
2022-12-31T16:01:09.116Z,14.05
2022-12-31T16:03:36.520Z,13.93
2022-12-31T16:06:11.961Z,14.00
2022-12-31T16:08:40.561Z,13.61
2022-12-31T16:11:09.587Z,13.67
2022-12-31T16:13:42.035Z,13.80
2022-12-31T16:16:31.451Z,13.84
2022-12-31T16:19:00.292Z,14.35
2022-12-31T16:21:36.953Z,14.90
2022-12-31T16:24:30.970Z,14.30
2022-12-31T16:27:06.578Z,14.17
2022-12-31T16:29:37.444Z,14.41
2022-12-31T16:32:04.773Z,13.86
2022-12-31T16:34:37.199Z,13.36
2022-12-31T16:37:16.690Z,13.52
2022-12-31T16:39:58.216Z,12.92
2022-12-31T16:42:27.778Z,13.53
2022-12-31T16:44:57.106Z,12.82
2022-12-31T16:47:33.127Z,12.82
2022-12-31T16:50:04.067Z,12.82
2022-12-31T16:52:37.021Z,12.88
2022-12-31T16:55:27.113Z,12.57
2022-12-31T16:58:01.660Z,12.57
2022-12-31T17:00:28.809Z,12.71
2022-12-31T17:03:28.483Z,12.70
2022-12-31T17:06:07.526Z,12.72
2022-12-31T17:08:45.320Z,12.80
2022-12-31T17:11:31.190Z,12.77
2022-12-31T17:14:07.168Z,12.73
2022-12-31T17:16:36.419Z,12.74
2022-12-31T17:19:04.087Z,12.69
2022-12-31T17:21:32.430Z,13.08
2022-12-31T17:24:06.022Z,12.87
2022-12-31T17:26:37.812Z,12.65
2022-12-31T17:29:05.809Z,12.80
2022-12-31T17:31:40.784Z,12.38
2022-12-31T17:34:13.413Z,12.77
2022-12-31T17:36:58.296Z,12.67
2022-12-31T17:39:26.145Z,12.65
2022-12-31T17:41:57.733Z,12.54
2022-12-31T17:44:28.715Z,12.65
2022-12-31T17:46:55.588Z,12.40
2022-12-31T17:49:29.749Z,12.37
2022-12-31T17:51:56.903Z,12.45
2022-12-31T17:54:23.525Z,12.40
2022-12-31T17:56:51.678Z,12.64
2022-12-31T17:59:22.704Z,12.98
2022-12-31T18:01:49.999Z,12.74
2022-12-31T18:04:19.061Z,12.40
2022-12-31T18:06:45.861Z,12.32
2022-12-31T18:09:12.588Z,12.29
2022-12-31T18:11:40.920Z,12.20
2022-12-31T18:14:08.215Z,12.42
2022-12-31T18:16:34.996Z,12.51
2022-12-31T18:19:01.958Z,12.43
2022-12-31T18:21:33.020Z,12.15
2022-12-31T18:26:29.218Z,12.37
2022-12-31T18:28:58.622Z,12.24
2022-12-31T18:31:29.322Z,12.11
2022-12-31T18:33:58.797Z,12.62
2022-12-31T18:36:28.708Z,12.16
2022-12-31T18:38:55.689Z,12.08
2022-12-31T18:41:27.776Z,12.16
2022-12-31T18:43:55.356Z,12.02
2022-12-31T18:46:24.659Z,12.58
2022-12-31T18:48:51.559Z,12.35
2022-12-31T18:51:29.303Z,12.18
2022-12-31T18:53:58.040Z,12.53
2022-12-31T18:56:25.160Z,12.75
2022-12-31T18:58:51.983Z,12.78
2022-12-31T19:01:30.250Z,13.01
2022-12-31T19:04:01.368Z,12.84
2022-12-31T19:06:29.334Z,12.36
2022-12-31T19:08:56.628Z,12.71
2022-12-31T19:11:23.856Z,13.29
2022-12-31T19:13:50.870Z,13.61
2022-12-31T19:16:17.971Z,12.63
2022-12-31T19:18:46.140Z,12.24
2022-12-31T19:21:19.199Z,12.61
2022-12-31T19:23:46.755Z,12.41
2022-12-31T19:26:22.100Z,12.13
2022-12-31T19:28:50.618Z,12.32
2022-12-31T19:31:17.974Z,12.55
2022-12-31T19:33:45.067Z,12.37
2022-12-31T19:36:17.899Z,12.32
2022-12-31T19:38:45.543Z,12.44
2022-12-31T19:41:18.739Z,12.04
2022-12-31T19:43:47.031Z,12.48
2022-12-31T19:46:15.836Z,12.26
2022-12-31T19:48:43.482Z,12.40
2022-12-31T19:51:15.963Z,12.21
2022-12-31T19:53:42.982Z,12.70
2022-12-31T19:56:16.882Z,12.25
2022-12-31T19:58:44.390Z,12.35
2022-12-31T20:01:23.593Z,12.46
2022-12-31T20:03:51.513Z,12.20
2022-12-31T20:06:19.582Z,12.52
2022-12-31T20:08:46.595Z,12.26
2022-12-31T20:11:17.276Z,12.17
2022-12-31T20:13:44.681Z,12.03
2022-12-31T20:16:17.553Z,12.35
2022-12-31T20:18:46.443Z,11.99
2022-12-31T20:21:26.552Z,12.14
2022-12-31T20:23:54.927Z,11.91
2022-12-31T20:26:23.970Z,12.07
2022-12-31T20:28:51.116Z,12.33
2022-12-31T20:31:22.637Z,12.58
2022-12-31T20:33:49.499Z,12.60
2022-12-31T20:36:17.633Z,12.36
2022-12-31T20:38:45.007Z,12.55
2022-12-31T20:41:20.668Z,12.56
2022-12-31T20:43:48.376Z,12.19
2022-12-31T20:46:25.015Z,12.35
2022-12-31T20:48:55.102Z,12.36
2022-12-31T20:51:23.406Z,12.55
2022-12-31T20:53:55.929Z,12.13
2022-12-31T20:56:24.896Z,12.19
2022-12-31T20:58:51.876Z,12.41
2022-12-31T21:01:19.650Z,12.61
2022-12-31T21:04:05.454Z,12.76
2022-12-31T21:06:35.182Z,12.87
2022-12-31T21:09:05.188Z,12.76
2022-12-31T21:11:51.031Z,12.73
2022-12-31T21:14:17.992Z,12.26
2022-12-31T21:16:44.788Z,12.49
2022-12-31T21:19:11.674Z,12.52
2022-12-31T21:21:38.603Z,12.43
2022-12-31T21:24:06.080Z,12.30
2022-12-31T21:26:32.968Z,12.31
2022-12-31T21:28:59.793Z,12.41
2022-12-31T21:31:26.604Z,12.00
2022-12-31T21:33:53.443Z,11.90
2022-12-31T21:36:20.217Z,12.26
2022-12-31T21:38:47.011Z,12.23
2022-12-31T21:41:35.074Z,12.15
2022-12-31T21:44:03.471Z,12.18
2022-12-31T21:46:30.639Z,11.95
2022-12-31T21:49:00.185Z,11.99
2022-12-31T21:51:30.420Z,11.86
2022-12-31T21:53:57.896Z,11.88
2022-12-31T21:56:24.948Z,11.81
2022-12-31T21:59:16.550Z,11.94
2022-12-31T22:02:02.529Z,11.66
2022-12-31T22:05:01.916Z,11.54
2022-12-31T22:07:16.391Z,11.64
2022-12-31T22:09:43.204Z,11.79
2022-12-31T22:12:09.949Z,12.00
2022-12-31T22:14:36.750Z,11.90
2022-12-31T22:17:03.568Z,11.81
2022-12-31T22:19:30.282Z,11.88
2022-12-31T22:21:57.040Z,12.00
2022-12-31T22:24:23.837Z,11.90
2022-12-31T22:26:52.073Z,11.94
2022-12-31T22:29:19.721Z,11.78
2022-12-31T22:31:46.448Z,11.97
2022-12-31T22:34:13.481Z,11.81
2022-12-31T22:36:40.611Z,11.98
2022-12-31T22:39:07.381Z,11.88
2022-12-31T22:41:34.134Z,11.97
2022-12-31T22:44:04.040Z,11.87
2022-12-31T22:46:34.886Z,11.98
2022-12-31T22:49:04.165Z,12.09
2022-12-31T22:51:56.078Z,11.71
2022-12-31T22:54:18.783Z,11.95
2022-12-31T22:56:45.471Z,12.14
2022-12-31T22:59:12.243Z,11.94
2022-12-31T23:01:39.247Z,11.86
2022-12-31T23:04:06.098Z,11.74
2022-12-31T23:06:32.961Z,11.94
2022-12-31T23:09:18.181Z,11.87
2022-12-31T23:11:44.976Z,12.03
2022-12-31T23:14:35.879Z,11.95
2022-12-31T23:17:29.486Z,11.62
2022-12-31T23:20:18.984Z,11.63
2022-12-31T23:23:05.664Z,11.80
2022-12-31T23:25:35.107Z,12.16
2022-12-31T23:28:01.992Z,12.76
2022-12-31T23:30:28.885Z,12.07
2022-12-31T23:32:55.661Z,11.74
2022-12-31T23:35:22.499Z,11.92
2022-12-31T23:37:49.312Z,11.76
2022-12-31T23:40:21.120Z,11.96
2022-12-31T23:42:50.058Z,11.81
2022-12-31T23:45:17.087Z,11.84
2022-12-31T23:47:43.876Z,11.87
2022-12-31T23:50:10.586Z,11.68
2022-12-31T23:52:37.424Z,11.92
2022-12-31T23:55:04.658Z,11.90
2022-12-31T23:57:31.392Z,11.88
2022-12-31T23:59:58.237Z,11.79
